Flight Number: EUR2050 Duration: 3:30
Departure: Cairo Int'll Airport (HECA) at 18:15 Distance: 1416 Nm
Arrival: Munich Int'l (EDDM) at 21:45 Equipment: A340

Weather Information
Cairo Airport, Egypt (HECA) 30-08N 031-24E 74M Jan 23, 2018 - 04:30 AM EST / 2018.01.23 0930 UTC
Wind: from the WSW (250 degrees) at 18 MPH (16 KT):0
Visibility: greater than 7 mile(s):0 Temperature: 64 F (18 C) Dew Point: 39 F (4 C) Relative Humidity: 39% Pressure (altimeter): 29.97 in. Hg (1015 hPa)
ob: HECA 230930Z 25016KT CAVOK 18/04 Q1015 NOSIG cycle: 9
Sunrise: 04:51 Sunset: 15:20 (UTC)

Munchen, Germany (EDDM) 48-21N 011-47E Jan 23, 2018 - 04:20 AM EST / 2018.01.23 0920 UTC
Wind: from the W (260 degrees) at 10 MPH (9 KT):0
Visibility: greater than 7 mile(s):0
Sky conditions: mostly cloudy Temperature: 39 F (4 C) Dew Point: 33 F (1 C) Relative Humidity: 80% Pressure (altimeter): 30.30 in. Hg (1026 hPa)
ob: EDDM 230920Z 26009KT 9999 FEW037 BKN050 04/01 Q1026 R88/290095 NOSIG cycle: 9
Sunrise: 06:55 Sunset: 15:54 (UTC)

TAF:2018/01/23 06:27 TAF EDDM 230500Z 2306/2412 27009KT 9999 BKN040 BECMG 2314/2316 21003KT

Previous Pireps for this route
Date Aircraft Flight time Fuel used Landing rate On time
2012-07-17A3403.19441150Yes
2012-10-19A34004.1968703-331No
2013-08-22A34003.56106301-278No
2013-09-18A3405.21112120No
2016-03-05A34004.0290740-123No
2016-08-02B7773.3973181.80Yes
(pireps marked green are flown by you)

Route map